Time;durP1;ratioP1;P1;durP2;ratioP2;P2;SDS_P1;SDS_P2;PMS_P1;PMS_P2;Temp;Humidity;BMP_temperature;BMP_pressure;BME280_temperature;BME280_humidity;BME280_pressure;Samples;Min_cycle;Max_cycle;Signal;HPM_P1;HPM_P2
2021/12/01 00:17:04;;;;;;;0.20;0.20;;;;;;;2.59;56.53;97040.41;1556412;23;20367;-87
2021/12/01 00:22:51;;;;;;;0.60;0.60;;;;;;;2.13;59.90;96995.59;4946059;29;20078;-90
2021/12/01 00:26:08;;;;;;;;;;;;;;;;;;;;;
2021/12/01 00:28:45;;;;;;;0.38;0.38;;;;;;;1.85;58.68;96940.38;4920913;29;20070;-91
2021/12/01 00:35:05;;;;;;;3.28;1.40;;;;;;;2.33;59.50;97027.38;4925846;29;20076;-90
2021/12/01 00:40:53;;;;;;;1.33;1.23;;;;;;;2.41;56.50;96987.47;4925966;29;20095;-90
2021/12/01 00:44:02;;;;;;;1.27;1.15;;;;;;;2.77;55.88;97028.25;4925388;29;20036;-92
2021/12/01 01:00:12;;;;;;;0.20;0.20;;;;;;;3.09;53.82;96993.50;4948794;29;20166;-90
2021/12/01 01:06:18;;;;;;;0.20;0.20;;;;;;;3.22;52.33;96951.59;4932371;29;20034;-91
2021/12/01 01:08:46;;;;;;;0.20;0.20;;;;;;;2.92;52.97;96918.53;4927848;29;20031;-91
2021/12/01 01:17:12;;;;;;;0.20;0.20;;;;;;;3.42;50.53;96953.34;4932725;29;20051;-89
2021/12/01 01:19:39;;;;;;;0.20;0.20;;;;;;;3.55;47.72;96951.91;4909326;29;20040;-90
2021/12/01 01:22:07;;;;;;;0.30;0.30;;;;;;;3.67;49.10;96965.44;4914253;29;20042;-91
2021/12/01 01:24:47;;;;;;;0.32;0.32;;;;;;;3.65;49.13;96955.88;4924900;29;20032;-90
2021/12/01 01:28:03;;;;;;;0.30;0.30;;;;;;;3.75;49.20;96997.69;4926617;29;20019;-90
2021/12/01 01:30:30;;;;;;;0.30;0.30;;;;;;;3.57;48.33;96948.25;4897397;29;20048;-91
2021/12/01 01:32:56;;;;;;;0.20;0.20;;;;;;;3.44;49.20;96936.53;4912842;29;20495;-89
2021/12/01 01:35:22;;;;;;;0.28;0.28;;;;;;;3.70;49.03;97012.91;4921816;29;20038;-91
2021/12/01 01:37:48;;;;;;;0.32;0.32;;;;;;;3.49;49.54;96945.09;4922641;29;20034;-90
2021/12/01 01:40:14;;;;;;;1.95;1.15;;;;;;;3.38;51.23;96943.84;4919679;29;20126;-88
2021/12/01 01:42:40;;;;;;;0.20;0.20;;;;;;;3.37;49.60;96950.06;4908149;29;20024;-91
2021/12/01 01:45:55;;;;;;;0.20;0.20;;;;;;;3.60;49.89;97001.00;4908982;29;20020;-91
2021/12/01 01:48:29;;;;;;;0.30;0.30;;;;;;;3.35;51.22;96987.13;4913331;29;20074;-88
2021/12/01 01:50:56;;;;;;;0.20;0.20;;;;;;;3.28;50.88;96981.25;4918360;29;20036;-91
2021/12/01 01:53:24;;;;;;;0.50;0.50;;;;;;;3.39;49.77;96985.19;4922505;29;20035;-90
2021/12/01 01:55:53;;;;;;;0.20;0.20;;;;;;;3.48;51.35;97011.22;4906791;29;20036;-91
2021/12/01 01:58:25;;;;;;;0.20;0.20;;;;;;;3.14;50.46;96959.81;4906559;29;20118;-90
2021/12/01 02:03:57;;;;;;;0.47;0.47;;;;;;;2.87;53.35;96923.13;4940571;29;20306;-91
2021/12/01 02:06:26;;;;;;;0.40;0.35;;;;;;;2.74;52.98;96899.00;4919609;29;20043;-92
2021/12/01 02:19:16;;;;;;;3.55;1.42;;;;;;;2.99;52.78;96856.59;4835202;29;20053;-92
2021/12/01 02:22:17;;;;;;;0.60;0.60;;;;;;;3.88;48.50;96936.34;4839435;29;20133;-93
2021/12/01 02:24:46;;;;;;;0.17;0.17;;;;;;;3.99;46.63;96849.38;4885932;29;20536;-95
2021/12/01 02:27:13;;;;;;;0.20;0.20;;;;;;;3.73;46.56;96811.78;4889324;29;20059;-92
2021/12/01 02:29:38;;;;;;;0.38;0.38;;;;;;;4.19;46.69;96902.22;4889269;29;20028;-93
2021/12/01 02:32:04;;;;;;;0.40;0.40;;;;;;;4.03;48.20;96872.13;4888935;29;20103;-92
2021/12/01 02:34:33;;;;;;;0.20;0.20;;;;;;;4.06;49.07;96891.34;4889200;29;20119;-93
2021/12/01 02:36:59;;;;;;;0.40;0.40;;;;;;;4.10;49.28;96915.88;4899587;29;20122;-91
2021/12/01 02:39:26;;;;;;;3.40;2.22;;;;;;;4.10;49.06;96911.44;4924053;29;20434;-93
2021/12/01 02:41:55;;;;;;;1.08;1.08;;;;;;;4.28;49.76;96960.00;4907912;29;20518;-93
2021/12/01 02:44:21;;;;;;;4.63;0.60;;;;;;;4.27;47.74;96931.84;4924077;29;20098;-93
2021/12/01 02:47:38;;;;;;;0.52;0.52;;;;;;;4.03;47.88;96894.13;4908070;29;20027;-92
2021/12/01 02:53:59;;;;;;;0.85;0.85;;;;;;;4.42;49.42;96976.13;4940145;29;20034;-91
2021/12/01 02:56:25;;;;;;;0.52;0.52;;;;;;;4.11;49.65;96928.19;4907725;29;20036;-91
2021/12/01 02:58:52;;;;;;;0.35;0.35;;;;;;;4.20;51.06;96959.50;4906653;29;20027;-91
2021/12/01 03:01:25;;;;;;;0.57;0.57;;;;;;;4.24;48.36;96974.34;4918493;29;20122;-91
2021/12/01 03:04:12;;;;;;;0.75;0.75;;;;;;;3.87;48.80;96890.50;4918413;29;20067;-91
2021/12/01 03:06:40;;;;;;;0.28;0.28;;;;;;;4.33;48.54;96971.25;4922902;29;20030;-91
2021/12/01 03:09:07;;;;;;;0.65;0.65;;;;;;;4.03;49.51;96919.75;4922299;29;20035;-91
2021/12/01 03:11:33;;;;;;;0.60;0.60;;;;;;;4.37;47.82;96956.91;4921967;29;20388;-89
2021/12/01 03:14:08;;;;;;;0.17;0.17;;;;;;;4.17;48.92;96910.25;4918699;29;20032;-90
2021/12/01 03:16:35;;;;;;;1.35;0.95;;;;;;;3.95;50.43;96893.63;4911350;29;20024;-90
2021/12/01 03:19:00;;;;;;;0.60;0.60;;;;;;;4.31;49.65;96943.97;4909587;29;20132;-89
2021/12/01 03:21:26;;;;;;;0.75;0.75;;;;;;;4.20;50.30;96946.28;4916956;29;20039;-88
2021/12/01 03:23:52;;;;;;;0.25;0.25;;;;;;;4.07;49.56;96940.69;4920329;29;20031;-90
2021/12/01 03:26:18;;;;;;;0.70;0.57;;;;;;;4.05;49.80;96953.16;4920097;29;20032;-90
2021/12/01 03:28:43;;;;;;;0.17;0.17;;;;;;;4.25;50.61;96984.81;4904636;29;20042;-91
2021/12/01 03:31:09;;;;;;;0.68;0.50;;;;;;;4.23;51.62;96983.19;4905045;29;20035;-91
2021/12/01 03:33:35;;;;;;;0.40;0.40;;;;;;;3.97;52.12;96941.19;4913136;29;20459;-90
2021/12/01 03:36:01;;;;;;;0.22;0.22;;;;;;;4.06;51.52;96957.50;4904964;29;20031;-91
2021/12/01 03:38:51;;;;;;;0.50;0.50;;;;;;;4.21;51.67;96987.69;4912366;29;20510;-91
2021/12/01 03:41:17;;;;;;;0.98;0.68;;;;;;;4.05;52.24;96982.25;4918191;29;20058;-90
2021/12/01 03:43:42;;;;;;;0.50;0.50;;;;;;;4.05;52.24;96986.69;4904726;29;20028;-90
2021/12/01 03:46:08;;;;;;;0.17;0.17;;;;;;;4.07;51.74;96977.75;4905319;29;20028;-91
2021/12/01 03:48:34;;;;;;;0.20;0.20;;;;;;;3.79;54.45;96974.59;4913384;29;20028;-90
2021/12/01 03:50:59;;;;;;;0.47;0.47;;;;;;;4.03;53.07;97015.00;4904748;29;20035;-90
2021/12/01 03:53:28;;;;;;;0.25;0.25;;;;;;;4.17;52.49;97002.00;4905008;29;20039;-89
2021/12/01 03:56:37;;;;;;;;;;;;;;;;;;;;;
2021/12/01 03:59:04;;;;;;;0.20;0.20;;;;;;;4.27;50.85;96995.38;4922096;29;20027;-89
2021/12/01 04:01:30;;;;;;;0.30;0.30;;;;;;;4.25;51.05;96999.84;4917886;29;20054;-89
2021/12/01 04:03:55;;;;;;;1.45;0.73;;;;;;;4.24;51.59;96998.16;4911123;29;20487;-89
2021/12/01 04:06:21;;;;;;;0.17;0.17;;;;;;;4.17;51.45;96999.34;4919281;29;20463;-89
2021/12/01 04:08:52;;;;;;;0.43;0.25;;;;;;;4.05;52.70;96976.09;4903997;29;20051;-88
2021/12/01 04:11:18;;;;;;;0.50;0.45;;;;;;;4.33;51.62;97016.25;4914074;29;20043;-89
2021/12/01 04:13:44;;;;;;;0.20;0.20;;;;;;;4.15;52.78;96974.75;4920158;29;20068;-91
2021/12/01 04:20:25;;;;;;;0.70;0.70;;;;;;;4.24;52.23;96998.16;4845997;29;20082;-90
2021/12/01 04:22:51;;;;;;;0.20;0.20;;;;;;;4.03;52.15;96967.38;4919506;29;20052;-92
2021/12/01 04:25:17;;;;;;;0.70;0.70;;;;;;;4.13;52.38;96989.81;4920981;29;20492;-90
2021/12/01 04:28:36;;;;;;;0.20;0.20;;;;;;;4.28;52.79;97020.88;4920453;29;20047;-91
2021/12/01 04:31:01;;;;;;;0.10;0.10;;;;;;;4.00;52.48;96970.16;4916223;29;20035;-89
2021/12/01 04:33:27;;;;;;;0.40;0.40;;;;;;;4.06;52.20;96989.22;4919318;29;20032;-89
2021/12/01 04:35:53;;;;;;;0.30;0.30;;;;;;;3.76;52.93;96943.00;4920200;29;20024;-90
2021/12/01 04:38:20;;;;;;;0.45;0.45;;;;;;;4.11;52.70;97002.28;4938482;29;20102;-90
2021/12/01 04:40:46;;;;;;;2.25;0.98;;;;;;;4.04;53.93;96995.53;4940362;28;20080;-89
2021/12/01 04:43:11;;;;;;;0.70;0.70;;;;;;;3.89;53.42;96952.13;4920782;29;20063;-90
2021/12/01 04:45:41;;;;;;;0.20;0.20;;;;;;;4.20;52.97;96986.84;4920523;29;20041;-92
2021/12/01 04:48:07;;;;;;;0.57;0.57;;;;;;;4.42;53.88;97028.19;4921393;29;20031;-91
2021/12/01 04:50:34;;;;;;;0.63;0.63;;;;;;;4.36;53.13;96987.84;4921135;29;20024;-91
2021/12/01 04:53:23;;;;;;;0.82;0.82;;;;;;;4.54;54.10;97012.59;4922008;29;20059;-92
2021/12/01 04:59:11;;;;;;;3.97;1.33;;;;;;;4.53;53.92;97021.47;4937368;29;20114;-91
2021/12/01 05:01:37;;;;;;;2.70;1.80;;;;;;;3.98;54.78;96927.88;4920388;29;20038;-92
2021/12/01 05:04:29;;;;;;;3.83;2.15;;;;;;;4.10;54.46;96956.44;4922794;29;20028;-91
2021/12/01 05:06:55;;;;;;;7.60;3.83;;;;;;;4.55;55.84;97030.22;4923170;29;20523;-92
2021/12/01 05:09:21;;;;;;;3.78;2.28;;;;;;;4.16;56.21;96981.75;4920778;29;20339;-91
2021/12/01 05:11:48;;;;;;;1.95;1.42;;;;;;;4.45;55.24;97020.13;4922354;29;20036;-91
2021/12/01 05:14:17;;;;;;;5.70;3.35;;;;;;;4.30;56.85;97006.66;4921054;29;20024;-95
2021/12/01 05:16:43;;;;;;;5.57;2.53;;;;;;;4.24;56.39;96995.50;4922266;29;20035;-91
2021/12/01 05:19:10;;;;;;;5.70;3.08;;;;;;;4.29;56.68;96998.78;4922614;29;20039;-90
2021/12/01 05:22:16;;;;;;;2.80;1.52;;;;;;;4.22;56.23;97006.16;4927321;29;20050;-92
2021/12/01 05:25:20;;;;;;;4.88;3.03;;;;;;;4.60;56.51;97049.41;4935806;29;20036;-93
2021/12/01 05:27:46;;;;;;;4.28;2.42;;;;;;;4.35;56.12;97007.31;4920069;29;20115;-89
2021/12/01 05:50:51;;;;;;;4.95;2.22;;;;;;;4.57;57.22;97046.91;4941942;29;20134;-85
2021/12/01 05:53:46;;;;;;;4.35;2.50;;;;;;;4.39;57.82;97021.25;4922915;29;20055;-88
2021/12/01 07:57:16;;;;;;;1.73;0.52;;;;;;;5.78;60.84;97123.16;4937604;29;20114;-82
2021/12/01 07:59:41;;;;;;;0.55;0.55;;;;;;;5.96;61.31;97143.53;4915225;29;20483;-83
2021/12/01 08:02:07;;;;;;;0.65;0.65;;;;;;;6.10;60.73;97163.19;4933042;29;20050;-81
2021/12/01 08:08:29;;;;;;;;;;;;;;;;;;;;;
2021/12/01 10:16:19;;;;;;;2.50;1.08;;;;;;;8.40;55.46;97099.81;4797168;27;20052;-86
2021/12/01 10:18:51;;;;;;;0.50;0.50;;;;;;;8.39;52.95;97050.09;4903892;29;20125;-86
2021/12/01 10:21:51;;;;;;;0.30;0.30;;;;;;;8.95;53.27;97115.91;4920068;29;20084;-86
2021/12/01 10:24:26;;;;;;;0.43;0.43;;;;;;;9.05;53.35;97061.03;4919209;29;20040;-86
2021/12/01 10:26:56;;;;;;;0.98;0.88;;;;;;;9.33;52.33;97049.44;4904344;29;20130;-87
2021/12/01 10:50:43;;;;;;;0.45;0.45;;;;;;;17.41;34.18;96993.63;4766975;30;20067;-87
2021/12/01 10:56:23;;;;;;;0.30;0.30;;;;;;;17.12;34.20;96966.78;4760676;29;20111;-86
2021/12/01 10:59:08;;;;;;;1.63;1.20;;;;;;;16.77;33.77;96972.03;4788472;29;20039;-85
2021/12/01 11:01:33;;;;;;;0.68;0.17;;;;;;;16.11;35.36;96969.31;4902986;29;20163;-86
2021/12/01 11:03:59;;;;;;;1.23;0.88;;;;;;;17.00;34.67;96964.41;4903644;29;20118;-84
2021/12/01 11:06:27;;;;;;;0.25;0.25;;;;;;;17.36;33.78;96912.16;4904144;29;20122;-87
2021/12/01 11:08:58;;;;;;;1.70;0.75;;;;;;;17.30;34.26;96991.16;4904700;29;20404;-86
2021/12/01 11:11:34;;;;;;;2.08;0.73;;;;;;;17.32;33.33;96989.13;4904713;29;20511;-86
2021/12/01 11:14:09;;;;;;;0.20;0.20;;;;;;;17.26;34.19;96984.34;4903517;29;20044;-86
2021/12/01 11:16:39;;;;;;;0.52;0.52;;;;;;;17.54;33.10;96964.41;4903596;29;20167;-88
2021/12/01 11:19:05;;;;;;;5.35;1.10;;;;;;;17.62;33.57;96953.72;4903986;29;20115;-87
2021/12/01 11:21:31;;;;;;;1.67;0.50;;;;;;;18.14;33.03;96975.53;4904048;29;20411;-87
2021/12/01 11:24:10;;;;;;;0.43;0.43;;;;;;;18.17;31.92;96935.47;4904099;29;20032;-87
2021/12/01 11:26:39;;;;;;;0.75;0.45;;;;;;;18.41;31.63;96951.88;4904245;29;20031;-87
2021/12/01 11:29:08;;;;;;;0.30;0.30;;;;;;;18.51;31.44;96941.00;4903587;29;20036;-86
2021/12/01 11:31:52;;;;;;;0.20;0.20;;;;;;;18.72;30.68;96936.03;4903971;29;20032;-85
2021/12/01 11:34:18;;;;;;;0.60;0.60;;;;;;;18.71;30.83;96930.78;4903591;29;20031;-87
2021/12/01 11:36:47;;;;;;;0.60;0.52;;;;;;;18.27;31.75;96919.94;4903544;29;20098;-87
2021/12/01 11:39:43;;;;;;;3.90;2.80;;;;;;;18.30;30.69;96862.78;4919169;29;20112;-88
2021/12/01 11:42:10;;;;;;;7.85;3.47;;;;;;;18.64;31.38;96908.88;4918216;29;20518;-88
2021/12/01 11:44:36;;;;;;;9.70;3.45;;;;;;;18.52;31.37;96893.91;4903960;29;20042;-84
2021/12/01 11:47:02;;;;;;;4.55;3.13;;;;;;;19.05;31.43;96893.69;4921314;29;20031;-87
2021/12/01 11:49:36;;;;;;;4.40;2.03;;;;;;;19.35;29.40;96905.81;4903662;29;20067;-87
2021/12/01 11:52:04;;;;;;;17.35;10.90;;;;;;;19.15;30.38;96888.13;4903845;29;20038;-87
2021/12/01 11:54:33;;;;;;;8.60;5.90;;;;;;;19.75;29.51;96884.22;4903680;29;20032;-87
2021/12/01 11:57:05;;;;;;;4.78;3.05;;;;;;;19.36;29.38;96873.13;4904108;29;20552;-89
2021/12/01 11:59:37;;;;;;;5.18;3.10;;;;;;;19.00;30.79;96897.91;4903815;29;20230;-89
2021/12/01 12:02:04;;;;;;;;;;;;;;;18.79;30.34;96904.59;4904648;29;20400;-88
2021/12/01 12:04:43;;;;;;;5.00;3.30;;;;;;;17.96;31.94;96917.84;4918783;29;19917;-86
2021/12/01 12:07:21;;;;;;;4.25;2.70;;;;;;;17.86;31.79;96882.75;4918589;29;20028;-85
2021/12/01 12:10:06;;;;;;;7.45;4.10;;;;;;;18.25;31.51;96913.84;4917880;29;20040;-85
2021/12/01 12:13:01;;;;;;;7.68;4.68;;;;;;;17.49;33.36;96918.03;4902362;29;20066;-76
2021/12/01 12:15:33;;;;;;;5.93;3.30;;;;;;;17.32;33.46;96918.84;4933530;29;20468;-76
2021/12/01 12:17:59;;;;;;;6.18;3.65;;;;;;;17.74;32.79;96889.41;4916641;29;20035;-75
2021/12/01 12:20:29;;;;;;;4.85;3.38;;;;;;;18.22;31.64;96894.34;4916593;29;20050;-75
2021/12/01 12:22:56;;;;;;;5.00;2.65;;;;;;;17.11;33.14;96900.22;4917128;29;20066;-75
2021/12/01 12:25:48;;;;;;;4.65;2.33;;;;;;;16.49;33.50;96914.38;4916499;29;20027;-75
2021/12/01 12:28:20;;;;;;;7.28;2.13;;;;;;;16.26;34.13;96913.03;4901560;29;20488;-75
2021/12/01 12:30:45;;;;;;;2.70;1.90;;;;;;;16.18;34.38;96897.56;4933667;29;20399;-74
2021/12/01 12:33:19;;;;;;;3.65;1.40;;;;;;;15.43;34.79;96908.25;4933496;29;20042;-75
2021/12/01 12:35:48;;;;;;;8.13;2.03;;;;;;;15.78;35.13;96920.34;4900702;29;20040;-76
2021/12/01 12:38:14;;;;;;;6.32;3.08;;;;;;;16.38;33.77;96925.38;4917009;29;20028;-75
2021/12/01 12:40:40;;;;;;;5.30;3.35;;;;;;;16.15;33.76;96922.13;4916501;29;20091;-76
2021/12/01 12:43:23;;;;;;;3.88;2.75;;;;;;;15.89;34.26;96922.88;4916490;29;20787;-76
2021/12/01 12:46:07;;;;;;;5.38;2.65;;;;;;;15.99;34.60;96924.59;4916683;29;20074;-75
2021/12/01 12:48:40;;;;;;;6.68;4.07;;;;;;;15.83;34.94;96920.75;4916301;29;20533;-75
2021/12/01 12:51:26;;;;;;;4.95;2.53;;;;;;;15.35;34.89;96916.16;4900526;29;20035;-76
2021/12/01 12:54:04;;;;;;;6.65;3.42;;;;;;;14.97;36.50;96922.31;4917332;29;20027;-76
2021/12/01 12:56:35;;;;;;;5.15;2.88;;;;;;;14.41;36.48;96913.03;4920358;29;20559;-76
2021/12/01 12:59:19;;;;;;;4.75;2.67;;;;;;;13.74;38.06;96917.94;4904716;29;20032;-76
2021/12/01 13:01:50;;;;;;;3.40;2.50;;;;;;;14.29;37.40;96906.84;4919840;29;20039;-76
2021/12/01 13:04:51;;;;;;;4.22;2.45;;;;;;;14.26;36.90;96915.19;4920280;29;20487;-76
2021/12/01 13:07:29;;;;;;;3.55;2.17;;;;;;;14.43;37.00;96908.34;4920060;29;20027;-74
2021/12/01 13:10:18;;;;;;;5.88;2.85;;;;;;;14.20;37.46;96904.09;4919922;29;20050;-76
2021/12/01 13:12:48;;;;;;;3.95;2.05;;;;;;;13.15;39.13;96904.13;4904127;29;20047;-76
2021/12/01 13:15:36;;;;;;;4.30;2.83;;;;;;;12.65;40.19;96921.63;4919804;29;20388;-76
2021/12/01 13:18:04;;;;;;;5.40;2.58;;;;;;;13.03;39.50;96928.31;4920257;29;20071;-76
2021/12/01 13:20:50;;;;;;;3.22;2.53;;;;;;;12.73;39.76;96930.78;4919744;29;20043;-76
2021/12/01 13:23:45;;;;;;;6.43;4.22;;;;;;;12.48;40.92;96915.81;4917531;29;20027;-75
2021/12/01 13:26:18;;;;;;;14.10;8.68;;;;;;;13.17;39.91;96935.25;4914549;29;20031;-76
2021/12/01 13:28:51;;;;;;;5.32;3.58;;;;;;;14.10;37.85;96928.25;4936679;29;20040;-76
2021/12/01 13:31:23;;;;;;;14.98;5.85;;;;;;;14.14;38.18;96932.38;4919754;29;20476;-76
2021/12/01 13:34:20;;;;;;;9.40;5.00;;;;;;;14.88;36.81;96927.69;4903684;29;20627;-75
2021/12/01 13:36:56;;;;;;;4.78;2.80;;;;;;;14.47;36.82;96934.88;4919457;29;20024;-75
2021/12/01 13:39:25;;;;;;;7.68;2.30;;;;;;;14.34;37.34;96945.00;4919374;29;20114;-75
2021/12/01 13:41:56;;;;;;;6.63;3.85;;;;;;;14.60;36.98;96935.50;4919460;29;20087;-76
2021/12/01 13:44:39;;;;;;;4.40;2.70;;;;;;;15.11;36.13;96927.31;4903776;29;20092;-76
2021/12/01 13:47:08;;;;;;;9.02;4.15;;;;;;;14.94;36.25;96928.00;4920578;29;20415;-75
2021/12/01 13:49:45;;;;;;;3.05;1.58;;;;;;;14.18;36.84;96906.91;4919343;29;20547;-75
2021/12/01 13:52:36;;;;;;;8.45;3.08;;;;;;;13.18;39.09;96931.59;4919483;29;20039;-75
2021/12/01 13:55:16;;;;;;;5.95;4.20;;;;;;;12.65;40.41;96951.13;4935412;29;20022;-75
2021/12/01 13:57:44;;;;;;;12.05;4.70;;;;;;;12.08;41.47;96954.75;4903357;29;20296;-75
2021/12/01 14:00:10;;;;;;;7.18;2.20;;;;;;;11.77;41.81;96947.38;4919106;29;20042;-74
2021/12/01 14:02:37;;;;;;;6.32;2.72;;;;;;;11.69;42.36;96957.78;4919074;29;20063;-76
2021/12/01 14:05:04;;;;;;;4.60;2.92;;;;;;;11.65;42.33;96957.16;4902658;29;20027;-75
2021/12/01 14:07:45;;;;;;;8.57;4.32;;;;;;;11.90;42.01;96953.50;4918913;29;20492;-76
2021/12/01 14:10:22;;;;;;;7.60;3.53;;;;;;;12.09;41.80;96958.31;4936315;29;20114;-76
2021/12/01 14:12:58;;;;;;;6.85;3.80;;;;;;;12.28;41.32;96954.06;4918904;29;20399;-76
2021/12/01 14:15:31;;;;;;;7.45;3.78;;;;;;;12.06;41.71;96956.69;4902983;29;20043;-75
2021/12/01 14:17:57;;;;;;;7.25;3.80;;;;;;;11.53;42.63;96957.22;4903069;29;20038;-75
2021/12/01 14:20:25;;;;;;;11.85;6.40;;;;;;;11.20;43.53;96961.44;4919078;29;20094;-75
2021/12/01 14:22:53;;;;;;;10.10;4.00;;;;;;;10.82;44.53;96974.97;4902928;29;20038;-77
2021/12/01 14:25:20;;;;;;;7.07;3.85;;;;;;;10.63;44.84;96963.00;4902749;29;20384;-76
2021/12/01 14:27:49;;;;;;;7.90;3.88;;;;;;;10.45;45.63;96985.69;4916406;29;20031;-77
2021/12/01 14:30:17;;;;;;;6.93;4.22;;;;;;;10.27;46.29;96991.34;4900570;29;20027;-76
2021/12/01 14:32:43;;;;;;;11.65;4.70;;;;;;;10.09;46.99;96979.25;4900796;29;20102;-76
2021/12/01 14:35:09;;;;;;;7.18;4.78;;;;;;;10.00;47.02;96982.56;4900421;29;20055;-77
2021/12/01 14:37:36;;;;;;;8.52;4.30;;;;;;;10.01;47.44;96988.75;4900089;29;20023;-76
2021/12/01 14:40:08;;;;;;;10.07;6.32;;;;;;;10.04;47.23;96992.06;4901005;29;20032;-90
2021/12/01 14:42:39;;;;;;;7.80;4.18;;;;;;;9.90;47.16;96991.31;4923787;29;20024;-90
2021/12/01 14:45:08;;;;;;;12.32;4.65;;;;;;;9.76;47.85;96986.91;4908451;29;20122;-90
2021/12/01 14:47:34;;;;;;;10.18;4.72;;;;;;;9.60;48.01;96970.19;4907455;29;20019;-90
2021/12/01 14:50:01;;;;;;;17.08;8.77;;;;;;;9.62;49.24;97000.34;4909084;29;20209;-89
2021/12/01 14:52:28;;;;;;;25.95;9.73;;;;;;;9.51;48.93;96998.38;4910915;29;20071;-90
2021/12/01 14:55:02;;;;;;;11.60;5.55;;;;;;;9.41;49.50;96989.28;4910966;29;20029;-90
2021/12/01 14:57:33;;;;;;;17.88;9.82;;;;;;;9.23;49.71;96991.31;4905336;29;20035;-76
2021/12/01 15:00:01;;;;;;;16.48;8.27;;;;;;;9.36;49.78;97030.53;4915529;29;20596;-76
2021/12/01 15:02:29;;;;;;;47.00;19.00;;;;;;;9.32;51.17;97018.38;4899882;29;20387;-75
2021/12/01 15:05:14;;;;;;;11.93;7.00;;;;;;;9.32;49.87;97031.72;4915428;29;20086;-75
2021/12/01 15:07:50;;;;;;;64.60;29.70;;;;;;;9.23;50.34;97026.00;4915526;29;20027;-75
2021/12/01 15:10:19;;;;;;;44.13;18.90;;;;;;;9.13;51.67;97022.25;4915284;29;20037;-79
2021/12/01 15:13:10;;;;;;;26.67;13.13;;;;;;;8.79;53.48;97012.03;4916432;29;20040;-82
2021/12/01 15:15:52;;;;;;;20.90;8.73;;;;;;;8.79;52.51;97037.81;4915231;29;20102;-81
2021/12/01 15:18:25;;;;;;;23.70;11.55;;;;;;;8.67;54.10;97037.63;4899482;29;20103;-79
2021/12/01 15:21:02;;;;;;;27.92;13.93;;;;;;;8.57;54.45;97038.31;4915346;29;20510;-76
2021/12/01 15:23:44;;;;;;;34.15;13.93;;;;;;;8.49;55.55;97036.09;4899508;29;20039;-76
2021/12/01 15:26:09;;;;;;;43.25;20.90;;;;;;;8.38;55.63;97033.25;4897259;29;20028;-78
2021/12/01 15:28:35;;;;;;;44.08;21.75;;;;;;;8.27;57.41;97043.69;4899425;29;20042;-76
2021/12/01 15:31:05;;;;;;;52.42;24.58;;;;;;;8.17;57.38;97059.38;4914862;29;20509;-76
2021/12/01 15:33:31;;;;;;;79.13;36.83;;;;;;;8.04;59.57;97060.19;4899264;29;20028;-76
2021/12/01 15:35:56;;;;;;;35.63;18.67;;;;;;;7.98;57.82;97050.75;4899424;29;20028;-77
2021/12/01 15:38:22;;;;;;;38.70;19.00;;;;;;;7.88;58.18;97030.94;4899570;29;20039;-74
2021/12/01 15:40:48;;;;;;;13.63;8.05;;;;;;;8.21;56.28;97061.84;4899295;29;20106;-77
2021/12/01 15:43:13;;;;;;;9.65;4.93;;;;;;;8.33;55.98;97050.47;4914958;29;20027;-77
2021/12/01 15:45:39;;;;;;;8.93;4.63;;;;;;;8.33;55.76;97045.16;4899166;29;20039;-78
2021/12/01 15:48:05;;;;;;;10.00;5.97;;;;;;;8.41;55.80;97035.72;4899006;29;20416;-73
2021/12/01 15:50:31;;;;;;;12.15;6.55;;;;;;;8.28;56.30;97033.91;4913965;29;20403;-74
2021/12/01 15:52:59;;;;;;;73.35;35.47;;;;;;;8.29;57.68;97063.13;4898975;29;20027;-74
2021/12/01 15:55:25;;;;;;;35.10;17.08;;;;;;;8.31;56.57;97047.03;4898802;29;20031;-74
2021/12/01 15:57:51;;;;;;;33.33;15.07;;;;;;;8.24;55.41;97029.69;4914570;29;20039;-74
2021/12/01 16:00:19;;;;;;;11.88;6.38;;;;;;;8.19;55.65;97038.81;4914936;29;20028;-74
2021/12/01 16:02:50;;;;;;;16.00;8.48;;;;;;;8.29;55.41;97030.28;4914808;29;20026;-74
2021/12/01 16:05:19;;;;;;;36.45;17.00;;;;;;;8.23;57.14;97052.81;4898669;29;20038;-74
2021/12/01 16:07:44;;;;;;;21.73;9.07;;;;;;;8.12;56.86;97052.63;4914459;29;20023;-75
2021/12/01 16:10:10;;;;;;;21.27;9.43;;;;;;;7.94;58.21;97051.88;4898428;29;20042;-75
2021/12/01 16:12:36;;;;;;;22.33;9.77;;;;;;;7.71;60.57;97062.19;4914599;29;20529;-74
2021/12/01 16:15:03;;;;;;;14.32;7.13;;;;;;;7.55;59.96;97051.56;4913752;29;20047;-73
2021/12/01 16:17:28;;;;;;;28.48;13.82;;;;;;;7.52;60.40;97055.28;4898049;29;20028;-74
2021/12/01 16:19:54;;;;;;;89.22;43.95;;;;;;;7.49;61.57;97051.94;4898058;29;20032;-73
2021/12/01 16:22:20;;;;;;;45.65;25.38;;;;;;;7.40;61.62;97058.63;4898166;29;20031;-74
2021/12/01 16:24:45;;;;;;;65.65;31.35;;;;;;;7.39;62.70;97067.56;4898141;29;20497;-74
2021/12/01 16:27:11;;;;;;;60.83;28.02;;;;;;;7.20;63.08;97061.56;4897784;29;20035;-74
2021/12/01 16:29:39;;;;;;;62.65;30.75;;;;;;;6.89;63.62;97049.13;4897688;29;20373;-75
2021/12/01 16:32:09;;;;;;;40.67;20.73;;;;;;;6.99;64.03;97055.66;4913807;29;20031;-74
2021/12/01 16:34:34;;;;;;;29.75;14.15;;;;;;;6.97;65.52;97081.47;4914738;29;20410;-75
2021/12/01 16:37:02;;;;;;;20.17;7.80;;;;;;;6.85;63.12;97044.06;4913414;29;20144;-75
2021/12/01 16:39:28;;;;;;;13.48;6.10;;;;;;;6.89;63.15;97057.09;4898870;29;20110;-74
2021/12/01 16:41:53;;;;;;;10.80;5.40;;;;;;;6.77;64.77;97060.44;4897984;29;20658;-74
2021/12/01 16:44:19;;;;;;;13.75;8.20;;;;;;;6.71;64.27;97060.75;4898244;29;20024;-75
2021/12/01 16:46:45;;;;;;;14.18;7.05;;;;;;;6.54;65.95;97059.03;4913554;29;20031;-75
2021/12/01 16:49:14;;;;;;;18.58;8.48;;;;;;;6.58;67.27;97069.50;4897915;29;20028;-76
2021/12/01 16:51:40;;;;;;;18.63;9.15;;;;;;;6.36;66.47;97041.44;4913780;29;20115;-75
2021/12/01 16:54:09;;;;;;;15.40;6.18;;;;;;;6.49;65.77;97062.88;4899695;29;20564;-79
2021/12/01 16:56:34;;;;;;;38.08;19.75;;;;;;;6.40;65.41;97044.75;4911471;29;20036;-79
2021/12/01 16:59:00;;;;;;;10.38;5.30;;;;;;;6.38;65.25;97038.69;4932838;29;20095;-77
2021/12/01 17:01:27;;;;;;;8.73;3.58;;;;;;;6.54;65.59;97058.16;4913858;29;20043;-80
2021/12/01 17:06:40;;;;;;;8.38;4.45;;;;;;;6.52;65.26;97057.41;4914019;29;20059;-74
2021/12/01 17:09:06;;;;;;;16.83;9.75;;;;;;;6.33;66.99;97044.25;4917031;29;20476;-74
2021/12/01 17:11:32;;;;;;;28.98;16.65;;;;;;;6.43;66.98;97065.84;4913297;29;20124;-75
2021/12/01 17:13:58;;;;;;;29.33;17.42;;;;;;;6.39;67.40;97053.69;4913296;29;20046;-75
2021/12/01 17:16:24;;;;;;;24.88;14.60;;;;;;;6.24;68.05;97038.56;4897895;29;20518;-75
2021/12/01 17:18:51;;;;;;;42.72;23.98;;;;;;;6.28;69.34;97064.00;4898019;29;20036;-74
2021/12/01 17:21:18;;;;;;;27.10;12.45;;;;;;;6.20;69.57;97067.06;4897814;29;20032;-73
2021/12/01 17:23:45;;;;;;;19.90;8.98;;;;;;;6.08;70.19;97058.88;4897800;29;20415;-73
2021/12/01 17:26:11;;;;;;;26.38;11.73;;;;;;;5.95;71.35;97059.53;4893726;29;20456;-74
2021/12/01 17:28:39;;;;;;;23.83;12.48;;;;;;;5.85;72.06;97058.25;4897223;29;20035;-76
2021/12/01 17:31:16;;;;;;;25.00;12.80;;;;;;;5.75;73.01;97058.78;4913455;29;20035;-73
2021/12/01 17:33:42;;;;;;;29.63;16.25;;;;;;;5.80;74.19;97047.00;4914736;29;20032;-75
2021/12/01 17:36:08;;;;;;;25.58;14.32;;;;;;;5.67;75.01;97040.59;4930596;29;20435;-74
2021/12/01 17:38:35;;;;;;;17.25;7.72;;;;;;;5.62;74.32;97041.78;4897468;29;20507;-74
2021/12/01 17:41:01;;;;;;;19.45;8.38;;;;;;;5.57;72.87;97036.69;4899901;29;20028;-73
2021/12/01 17:43:28;;;;;;;14.73;7.95;;;;;;;5.59;73.61;97049.88;4902147;29;20510;-85
2021/12/01 17:58:51;;;;;;;25.08;12.98;;;;;;;4.61;78.64;96969.03;5706529;23;20126;-90
2021/12/01 18:01:22;;;;;;;27.17;13.55;;;;;;;4.58;79.11;96963.03;4928590;29;20051;-91
2021/12/01 18:03:48;;;;;;;24.08;9.70;;;;;;;4.49;80.14;96956.34;4944531;29;20016;-93
2021/12/01 18:06:15;;;;;;;93.45;43.50;;;;;;;4.70;81.21;96986.25;4929433;29;20051;-92
2021/12/01 18:08:47;;;;;;;30.98;16.08;;;;;;;4.48;81.95;96952.00;4943459;29;20011;-95
2021/12/01 18:11:20;;;;;;;;;;;;;;;4.93;82.33;97034.56;5100218;23;20040;-92
2021/12/01 18:13:49;;;;;;;109.65;53.15;;;;;;;4.40;81.48;96962.06;4925141;29;20394;-91
2021/12/01 18:16:17;;;;;;;127.70;59.25;;;;;;;4.65;82.81;96999.72;4916294;29;20028;-91
2021/12/01 18:18:43;;;;;;;174.02;76.03;;;;;;;4.85;81.52;97028.78;4915656;29;20036;-88
2021/12/01 18:21:10;;;;;;;140.23;62.65;;;;;;;4.63;82.39;97006.88;4912635;29;20044;-91
2021/12/01 18:23:35;;;;;;;66.80;33.03;;;;;;;4.64;81.08;97008.59;4910837;29;20088;-89
2021/12/01 18:26:02;;;;;;;64.47;30.05;;;;;;;4.64;82.38;97019.19;4906126;29;20008;-92